KJEF/JEF METAR and TAF weather

Enter ICAO airport designator
Station Type Date Time Source
KJEF METAR 2024/04/17 18:53 UTC NOAA

KJEF 171853Z 26016G25KT 10SM CLR 26/07 A2990 RMK AO2 SLP113 T02610072


Station Type Date Time Source
KJEF Decoded METAR 2024/04/17 18:53 UTC NOAA

JEFFERSON CITY MEMORIAL AIRPORT , MO, United States (KJEF) 38-36N 92-09W 168M
Apr 17, 2024 - 02:53 PM EDT / 2024.04.17 1853 UTC
Wind: from the W (260 degrees) at 18 MPH (16 KT) gusting to 29 MPH (25 KT):0
Visibility: 10 mile(s):0
Sky conditions: clear
Temperature: 79.0 F (26.1 C)
Dew Point: 45.0 F (7.2 C)
Relative Humidity: 30%
Pressure (altimeter): 29.9 in. Hg (1012 hPa)
ob: KJEF 171853Z 26016G25KT 10SM CLR 26/07 A2990 RMK AO2 SLP113 T02610072
cycle: 19

Station Type Date Time Source
KJEF TAF 2024/04/17 18:36 UTC NOAA